createdAt,value
2018-07-14T00:00:04.958Z,4.97
2018-07-14T00:02:33.885Z,5.07
2018-07-14T00:05:03.416Z,5.03
2018-07-14T00:07:31.732Z,4.80
2018-07-14T00:10:00.709Z,4.70
2018-07-14T00:12:29.940Z,5.00
2018-07-14T00:14:58.554Z,4.73
2018-07-14T00:17:27.738Z,4.83
2018-07-14T00:19:56.732Z,4.73
2018-07-14T00:22:25.728Z,5.23
2018-07-14T00:24:54.645Z,5.53
2018-07-14T00:27:23.620Z,4.80
2018-07-14T00:29:52.481Z,5.60
2018-07-14T00:32:21.326Z,5.43
2018-07-14T00:34:50.511Z,5.37
2018-07-14T00:37:19.191Z,5.00
2018-07-14T00:39:48.807Z,4.90
2018-07-14T00:42:18.048Z,4.93
2018-07-14T00:44:47.624Z,4.93
2018-07-14T00:47:16.872Z,5.00
2018-07-14T00:49:46.232Z,4.60
2018-07-14T00:52:15.256Z,4.90
2018-07-14T00:54:43.659Z,5.00
2018-07-14T00:57:12.600Z,5.20
2018-07-14T00:59:41.892Z,5.10
2018-07-14T01:02:10.827Z,5.00
2018-07-14T01:04:39.840Z,4.67
2018-07-14T01:07:08.484Z,5.50
2018-07-14T01:09:38.297Z,4.77
2018-07-14T01:12:07.336Z,5.07
2018-07-14T01:14:37.123Z,4.97
2018-07-14T01:17:06.928Z,5.30
2018-07-14T01:19:36.251Z,5.20
2018-07-14T01:22:05.212Z,5.73
2018-07-14T01:24:34.266Z,5.03
2018-07-14T01:27:03.471Z,5.03
2018-07-14T01:29:32.727Z,5.07
2018-07-14T01:32:01.672Z,5.00
2018-07-14T01:34:30.225Z,4.97
2018-07-14T01:36:59.625Z,5.53
2018-07-14T01:39:28.714Z,5.30
2018-07-14T01:41:58.060Z,5.67
2018-07-14T01:44:27.103Z,5.67
2018-07-14T01:46:57.323Z,4.87
2018-07-14T01:49:26.394Z,5.23
2018-07-14T01:51:54.928Z,5.20
2018-07-14T01:54:24.207Z,5.10
2018-07-14T01:56:53.159Z,5.33
2018-07-14T01:59:22.460Z,5.63
2018-07-14T02:01:51.347Z,5.33
2018-07-14T02:04:20.625Z,5.13
2018-07-14T02:06:49.555Z,5.03
2018-07-14T02:09:18.662Z,5.87
2018-07-14T02:11:47.852Z,4.90
2018-07-14T02:14:16.855Z,5.30
2018-07-14T02:16:45.527Z,4.93
2018-07-14T02:19:15.266Z,5.63
2018-07-14T02:21:44.268Z,5.40
2018-07-14T02:24:14.069Z,5.17
2018-07-14T02:26:43.067Z,5.20
2018-07-14T02:29:12.766Z,5.17
2018-07-14T02:31:41.723Z,5.03
2018-07-14T02:34:11.052Z,4.70
2018-07-14T02:36:40.262Z,4.93
2018-07-14T02:39:10.313Z,4.97
2018-07-14T02:41:39.011Z,5.57
2018-07-14T02:44:08.226Z,5.40
2018-07-14T02:46:37.209Z,5.00
2018-07-14T02:49:06.256Z,4.90
2018-07-14T02:51:38.920Z,5.37
2018-07-14T02:54:08.447Z,5.33
2018-07-14T02:56:37.868Z,5.43
2018-07-14T02:59:07.232Z,5.30
2018-07-14T03:01:36.732Z,5.17
2018-07-14T03:04:05.904Z,5.13
2018-07-14T03:06:34.888Z,5.33
2018-07-14T03:09:04.315Z,5.20
2018-07-14T03:11:33.473Z,5.40
2018-07-14T03:14:02.570Z,5.50
2018-07-14T03:16:31.240Z,5.60
2018-07-14T03:19:00.064Z,5.70
2018-07-14T03:21:29.099Z,5.37
2018-07-14T03:23:58.025Z,5.03
2018-07-14T03:26:27.223Z,5.50
2018-07-14T03:28:56.503Z,5.20
2018-07-14T03:31:25.192Z,5.63
2018-07-14T03:33:54.464Z,5.27
2018-07-14T03:36:23.792Z,5.93
2018-07-14T03:38:53.053Z,5.20
2018-07-14T03:41:22.307Z,5.17
2018-07-14T03:43:51.303Z,5.80
2018-07-14T03:46:20.248Z,4.97
2018-07-14T03:48:49.604Z,5.60
2018-07-14T03:51:19.291Z,4.93
2018-07-14T03:53:48.264Z,5.37
2018-07-14T03:56:17.328Z,5.13
2018-07-14T03:58:46.247Z,5.33
2018-07-14T04:01:15.419Z,5.07
2018-07-14T04:03:44.408Z,5.70
2018-07-14T04:06:13.245Z,5.13
2018-07-14T04:08:42.299Z,5.37
2018-07-14T04:11:10.999Z,5.53
2018-07-14T04:13:39.763Z,4.90
2018-07-14T04:16:08.679Z,5.00
2018-07-14T04:18:37.652Z,4.80
2018-07-14T04:21:06.703Z,5.17
2018-07-14T04:23:35.391Z,4.63
2018-07-14T04:26:04.345Z,5.17
2018-07-14T04:28:33.920Z,4.90
2018-07-14T04:31:03.172Z,4.93
2018-07-14T04:33:32.459Z,5.07
2018-07-14T04:36:01.697Z,5.20
2018-07-14T04:38:30.721Z,4.87
2018-07-14T04:40:59.528Z,5.00
2018-07-14T04:43:29.356Z,4.80
2018-07-14T04:45:58.122Z,4.30
2018-07-14T04:48:27.199Z,4.80
2018-07-14T04:50:56.588Z,4.57
2018-07-14T04:53:25.788Z,4.43
2018-07-14T04:55:55.632Z,4.17
2018-07-14T04:58:24.704Z,4.37
2018-07-14T05:00:54.032Z,4.60
2018-07-14T05:03:23.279Z,4.37
2018-07-14T05:05:52.252Z,3.80
2018-07-14T05:08:21.519Z,3.90
2018-07-14T05:10:50.789Z,3.87
2018-07-14T05:13:19.728Z,4.07
2018-07-14T05:15:48.721Z,4.03
2018-07-14T05:18:17.880Z,4.27
2018-07-14T05:20:46.946Z,3.83
2018-07-14T05:23:16.264Z,3.83
2018-07-14T05:25:46.135Z,3.90
2018-07-14T05:28:15.409Z,3.83
2018-07-14T05:30:44.150Z,3.97
2018-07-14T05:33:13.145Z,4.00
2018-07-14T05:35:42.775Z,4.00
2018-07-14T05:38:11.739Z,3.57
2018-07-14T05:40:41.004Z,3.67
2018-07-14T05:43:09.808Z,3.60
2018-07-14T05:45:38.736Z,3.40
2018-07-14T05:48:08.084Z,3.67
2018-07-14T05:50:37.136Z,3.83
2018-07-14T05:53:06.330Z,3.43
2018-07-14T05:55:36.344Z,3.63
2018-07-14T05:58:05.280Z,4.17
2018-07-14T06:00:34.100Z,3.67
2018-07-14T06:03:03.245Z,3.70
2018-07-14T06:05:32.176Z,3.90
2018-07-14T06:08:01.444Z,3.30
2018-07-14T06:10:30.393Z,3.90
2018-07-14T06:12:59.640Z,3.17
2018-07-14T06:15:28.796Z,3.50
2018-07-14T06:17:57.686Z,3.47
2018-07-14T06:20:26.454Z,4.10
2018-07-14T06:22:56.091Z,3.67
2018-07-14T06:25:25.147Z,3.37
2018-07-14T06:27:55.156Z,3.80
2018-07-14T06:30:24.024Z,3.73
2018-07-14T06:32:52.980Z,3.75
2018-07-14T06:35:22.223Z,3.73
2018-07-14T06:37:51.193Z,3.37
2018-07-14T06:40:19.873Z,4.00
2018-07-14T06:42:48.440Z,3.52
2018-07-14T06:45:17.649Z,3.80
2018-07-14T06:47:46.372Z,3.72
2018-07-14T06:50:15.423Z,3.42
2018-07-14T06:52:44.362Z,3.52
2018-07-14T06:55:13.633Z,3.30
2018-07-14T06:57:42.595Z,3.65
2018-07-14T07:00:11.784Z,3.60
2018-07-14T07:02:41.228Z,3.27
2018-07-14T07:05:10.128Z,3.87
2018-07-14T07:07:38.937Z,3.70
2018-07-14T07:10:08.187Z,3.70
2018-07-14T07:12:36.852Z,3.30
2018-07-14T07:15:05.684Z,3.50
2018-07-14T07:17:34.700Z,3.35
2018-07-14T07:20:03.579Z,3.40
2018-07-14T07:22:32.860Z,3.67
2018-07-14T07:25:01.918Z,3.60
2018-07-14T07:27:31.512Z,3.75
2018-07-14T07:30:00.570Z,3.47
2018-07-14T07:32:29.513Z,3.42
2018-07-14T07:34:58.652Z,3.40
2018-07-14T07:37:27.744Z,3.50
2018-07-14T07:39:56.904Z,3.45
2018-07-14T07:42:26.001Z,3.12
2018-07-14T07:44:55.091Z,3.67
2018-07-14T07:47:24.668Z,3.35
2018-07-14T07:49:53.830Z,3.80
2018-07-14T07:52:23.093Z,3.67
2018-07-14T07:54:52.739Z,3.50
2018-07-14T07:57:21.673Z,3.60
2018-07-14T07:59:50.535Z,3.70
2018-07-14T08:02:19.520Z,3.70
2018-07-14T08:04:48.724Z,3.27
2018-07-14T08:07:17.539Z,3.58
2018-07-14T08:09:46.817Z,3.22
2018-07-14T08:12:15.921Z,3.17
2018-07-14T08:14:44.603Z,3.42
2018-07-14T08:17:13.920Z,3.72
2018-07-14T08:19:42.907Z,3.35
2018-07-14T08:22:12.077Z,3.70
2018-07-14T08:24:41.115Z,3.45
2018-07-14T08:27:10.232Z,3.20
2018-07-14T08:29:39.419Z,3.02
2018-07-14T08:32:08.329Z,3.27
2018-07-14T08:34:38.268Z,3.65
2018-07-14T08:37:07.523Z,3.20
2018-07-14T08:39:36.345Z,2.98
2018-07-14T08:42:05.748Z,3.35
2018-07-14T08:44:34.328Z,3.22
2018-07-14T08:47:03.082Z,3.08
2018-07-14T08:49:32.346Z,2.75
2018-07-14T08:52:01.452Z,2.95
2018-07-14T08:54:30.786Z,2.92
2018-07-14T08:57:00.435Z,2.70
2018-07-14T08:59:29.579Z,3.12
2018-07-14T09:01:58.332Z,2.50
2018-07-14T09:04:28.312Z,2.77
2018-07-14T09:06:56.956Z,2.80
2018-07-14T09:09:26.108Z,2.83
2018-07-14T09:11:55.080Z,2.70
2018-07-14T09:14:24.024Z,2.65
2018-07-14T09:16:53.252Z,2.42
2018-07-14T09:19:22.168Z,2.27
2018-07-14T09:21:51.472Z,2.40
2018-07-14T09:24:20.699Z,2.52
2018-07-14T09:26:49.800Z,2.27
2018-07-14T09:29:19.017Z,2.33
2018-07-14T09:31:48.036Z,2.45
2018-07-14T09:34:17.028Z,2.50
2018-07-14T09:36:45.772Z,2.30
2018-07-14T09:39:15.107Z,2.20
2018-07-14T09:41:44.399Z,2.50
2018-07-14T09:44:13.323Z,2.30
2018-07-14T09:46:43.108Z,2.92
2018-07-14T09:49:12.235Z,2.35
2018-07-14T09:51:41.745Z,2.20
2018-07-14T09:54:10.727Z,2.40
2018-07-14T09:56:39.935Z,2.10
2018-07-14T09:59:09.995Z,2.15
2018-07-14T10:01:39.204Z,2.30
2018-07-14T10:04:08.168Z,2.35
2018-07-14T10:06:37.152Z,2.40
2018-07-14T10:09:06.746Z,2.70
2018-07-14T10:11:36.836Z,2.65
2018-07-14T10:14:06.122Z,2.47
2018-07-14T10:16:35.306Z,2.22
2018-07-14T10:19:04.436Z,2.10
2018-07-14T10:21:33.202Z,2.15
2018-07-14T10:24:02.462Z,2.35
2018-07-14T10:26:32.064Z,2.22
2018-07-14T10:29:01.223Z,2.22
2018-07-14T10:31:30.224Z,2.42
2018-07-14T10:33:59.389Z,2.50
2018-07-14T10:36:28.549Z,2.25
2018-07-14T10:38:56.876Z,2.30
2018-07-14T10:41:26.116Z,2.30
2018-07-14T10:43:54.755Z,2.30
2018-07-14T10:46:24.042Z,2.20
2018-07-14T10:48:53.199Z,2.25
2018-07-14T10:51:22.406Z,2.20
2018-07-14T10:53:51.201Z,2.08
2018-07-14T10:56:21.024Z,2.35
2018-07-14T10:58:50.210Z,2.40
2018-07-14T11:01:19.629Z,2.20
2018-07-14T11:03:49.219Z,2.33
2018-07-14T11:06:18.299Z,1.95
2018-07-14T11:08:51.438Z,2.08
2018-07-14T11:11:20.873Z,2.25
2018-07-14T11:13:50.692Z,2.20
2018-07-14T11:16:19.772Z,2.27
2018-07-14T11:18:48.461Z,2.27
2018-07-14T11:21:17.976Z,2.65
2018-07-14T11:23:47.572Z,2.25
2018-07-14T11:26:16.860Z,2.10
2018-07-14T11:28:45.348Z,2.30
2018-07-14T11:31:14.743Z,2.37
2018-07-14T11:33:44.176Z,2.30
2018-07-14T11:36:12.912Z,2.20
2018-07-14T11:38:41.964Z,2.40
2018-07-14T11:41:11.180Z,2.30
2018-07-14T11:43:39.601Z,2.30
2018-07-14T11:46:08.996Z,2.37
2018-07-14T11:48:38.032Z,2.30
2018-07-14T11:51:08.056Z,2.55
2018-07-14T11:53:37.057Z,2.70
2018-07-14T11:56:06.561Z,2.50
2018-07-14T11:58:35.376Z,2.22
2018-07-14T12:01:04.372Z,2.30
2018-07-14T12:03:33.432Z,2.30
2018-07-14T12:06:02.144Z,2.33
2018-07-14T12:08:31.273Z,2.60
2018-07-14T12:11:00.408Z,2.50
2018-07-14T12:13:29.410Z,2.90
2018-07-14T12:15:58.255Z,3.22
2018-07-14T12:18:27.232Z,4.00
2018-07-14T12:20:56.303Z,3.33
2018-07-14T12:23:25.068Z,3.00
2018-07-14T12:25:54.721Z,2.25
2018-07-14T12:28:23.635Z,2.58
2018-07-14T12:30:52.830Z,2.40
2018-07-14T12:33:21.988Z,2.60
2018-07-14T12:35:51.155Z,2.60
2018-07-14T12:38:20.224Z,2.50
2018-07-14T12:40:49.028Z,2.20
2018-07-14T12:43:17.898Z,2.25
2018-07-14T12:45:46.512Z,2.62
2018-07-14T12:48:15.907Z,2.85
2018-07-14T12:50:44.575Z,2.83
2018-07-14T12:53:13.996Z,3.00
2018-07-14T12:55:42.920Z,2.50
2018-07-14T12:58:12.236Z,2.70
2018-07-14T13:00:41.388Z,2.90
2018-07-14T13:03:10.543Z,2.60
2018-07-14T13:05:39.462Z,2.65
2018-07-14T13:08:08.259Z,2.85
2018-07-14T13:10:37.452Z,2.70
2018-07-14T13:13:06.156Z,2.25
2018-07-14T13:15:35.343Z,2.70
2018-07-14T13:18:03.875Z,2.70
2018-07-14T13:20:33.328Z,2.60
2018-07-14T13:23:02.288Z,2.40
2018-07-14T13:25:31.492Z,2.27
2018-07-14T13:28:01.204Z,2.58
2018-07-14T13:30:30.292Z,2.77
2018-07-14T13:32:59.247Z,2.55
2018-07-14T13:35:28.539Z,2.60
2018-07-14T13:37:57.215Z,2.40
2018-07-14T13:40:26.382Z,2.30
2018-07-14T13:42:55.216Z,2.35
2018-07-14T13:45:24.415Z,2.22
2018-07-14T13:47:54.377Z,2.50
2018-07-14T13:50:23.648Z,2.30
2018-07-14T13:52:53.146Z,2.47
2018-07-14T13:55:22.124Z,2.30
2018-07-14T13:57:51.032Z,2.20
2018-07-14T14:00:20.140Z,2.20
2018-07-14T14:02:49.158Z,2.60
2018-07-14T14:05:18.336Z,2.22
2018-07-14T14:07:47.567Z,2.30
2018-07-14T14:10:16.720Z,2.20
2018-07-14T14:12:45.788Z,2.08
2018-07-14T14:15:14.344Z,2.20
2018-07-14T14:17:43.712Z,2.27
2018-07-14T14:20:12.544Z,2.70
2018-07-14T14:22:41.750Z,2.30
2018-07-14T14:25:11.544Z,2.10
2018-07-14T14:27:41.843Z,2.20
2018-07-14T14:30:11.456Z,2.20
2018-07-14T14:32:40.684Z,2.60
2018-07-14T14:35:09.651Z,2.33
2018-07-14T14:37:38.363Z,2.45
2018-07-14T14:40:08.263Z,2.30
2018-07-14T14:42:37.035Z,2.30
2018-07-14T14:45:06.264Z,2.40
2018-07-14T14:47:35.260Z,1.87
2018-07-14T14:50:04.460Z,2.60
2018-07-14T14:52:33.928Z,2.35
2018-07-14T14:55:02.980Z,2.10
2018-07-14T14:57:32.195Z,2.42
2018-07-14T15:00:01.176Z,2.15
2018-07-14T15:02:29.884Z,2.30
2018-07-14T15:04:58.594Z,2.33
2018-07-14T15:07:27.926Z,2.50
2018-07-14T15:09:57.068Z,2.37
2018-07-14T15:12:26.130Z,2.30
2018-07-14T15:14:55.236Z,2.40
2018-07-14T15:17:24.451Z,2.22
2018-07-14T15:19:53.438Z,2.50
2018-07-14T15:22:22.931Z,2.75
2018-07-14T15:24:52.174Z,2.85
2018-07-14T15:27:21.316Z,2.20
2018-07-14T15:29:50.492Z,2.37
2018-07-14T15:32:19.577Z,2.65
2018-07-14T15:34:48.604Z,2.52
2018-07-14T15:37:17.416Z,2.40
2018-07-14T15:39:46.983Z,2.37
2018-07-14T15:42:15.672Z,2.47
2018-07-14T15:44:44.274Z,2.75
2018-07-14T15:47:13.520Z,2.42
2018-07-14T15:49:42.726Z,2.45
2018-07-14T15:52:11.651Z,2.52
2018-07-14T15:54:40.749Z,2.62
2018-07-14T15:57:09.903Z,2.50
2018-07-14T15:59:38.596Z,2.72
2018-07-14T16:02:07.551Z,2.45
2018-07-14T16:04:36.444Z,2.62
2018-07-14T16:07:05.243Z,2.60
2018-07-14T16:09:34.287Z,2.40
2018-07-14T16:12:03.627Z,2.70
2018-07-14T16:14:32.731Z,2.87
2018-07-14T16:17:01.969Z,2.75
2018-07-14T16:19:31.168Z,2.45
2018-07-14T16:22:00.948Z,3.15
2018-07-14T16:24:29.915Z,2.65
2018-07-14T16:26:58.640Z,2.75
2018-07-14T16:29:27.978Z,2.72
2018-07-14T16:31:57.804Z,2.80
2018-07-14T16:34:26.925Z,2.70
2018-07-14T16:36:56.167Z,2.90
2018-07-14T16:39:25.464Z,3.00
2018-07-14T16:41:54.736Z,2.60
2018-07-14T16:44:24.076Z,2.55
2018-07-14T16:46:58.100Z,2.90
2018-07-14T16:49:27.287Z,2.80
2018-07-14T16:51:56.867Z,2.60
2018-07-14T16:54:25.867Z,2.47
2018-07-14T16:56:54.921Z,2.83
2018-07-14T16:59:25.124Z,2.72
2018-07-14T17:01:54.122Z,2.50
2018-07-14T17:04:23.148Z,2.92
2018-07-14T17:06:52.215Z,2.90
2018-07-14T17:09:21.290Z,2.70
2018-07-14T17:11:50.519Z,2.60
2018-07-14T17:14:19.542Z,3.50
2018-07-14T17:16:48.496Z,2.75
2018-07-14T17:19:17.461Z,5.97
2018-07-14T17:21:46.090Z,11.22
2018-07-14T17:24:14.700Z,4.10
2018-07-14T17:26:44.272Z,9.58
2018-07-14T17:29:13.442Z,3.62
2018-07-14T17:31:42.600Z,5.08
2018-07-14T17:34:11.609Z,2.77
2018-07-14T17:36:41.594Z,3.00
2018-07-14T17:39:10.984Z,3.70
2018-07-14T17:41:40.294Z,3.40
2018-07-14T17:44:09.368Z,3.50
2018-07-14T17:46:38.336Z,3.20
2018-07-14T17:49:07.346Z,2.90
2018-07-14T17:51:36.493Z,2.77
2018-07-14T17:54:05.560Z,2.50
2018-07-14T17:56:34.313Z,2.98
2018-07-14T17:59:03.458Z,2.77
2018-07-14T18:01:32.416Z,3.25
2018-07-14T18:04:01.626Z,2.83
2018-07-14T18:06:30.340Z,2.92
2018-07-14T18:08:59.416Z,2.98
2018-07-14T18:11:28.963Z,3.05
2018-07-14T18:13:58.140Z,2.90
2018-07-14T18:16:27.240Z,2.85
2018-07-14T18:18:56.316Z,4.22
2018-07-14T18:21:25.207Z,2.70
2018-07-14T18:23:57.651Z,2.85
2018-07-14T18:26:26.018Z,2.77
2018-07-14T18:28:54.770Z,2.90
2018-07-14T18:31:23.408Z,3.02
2018-07-14T18:33:52.032Z,3.20
2018-07-14T18:36:21.262Z,4.12
2018-07-14T18:38:50.448Z,3.95
2018-07-14T18:41:19.308Z,3.08
2018-07-14T18:43:49.093Z,2.98
2018-07-14T18:46:17.955Z,2.72
2018-07-14T18:48:46.877Z,3.00
2018-07-14T18:51:15.688Z,3.00
2018-07-14T18:53:44.636Z,3.20
2018-07-14T18:56:13.781Z,3.45
2018-07-14T18:58:42.631Z,3.30
2018-07-14T19:01:11.594Z,3.15
2018-07-14T19:03:40.720Z,3.40
2018-07-14T19:06:09.370Z,3.10
2018-07-14T19:08:38.069Z,3.00
2018-07-14T19:11:07.342Z,2.87
2018-07-14T19:13:36.156Z,2.90
2018-07-14T19:16:05.385Z,3.22
2018-07-14T19:18:34.099Z,3.27
2018-07-14T19:21:03.206Z,3.00
2018-07-14T19:23:32.526Z,3.08
2018-07-14T19:26:02.629Z,3.27
2018-07-14T19:28:31.272Z,2.75
2018-07-14T19:31:00.438Z,3.00
2018-07-14T19:33:30.149Z,3.17
2018-07-14T19:35:58.817Z,3.22
2018-07-14T19:38:27.712Z,2.87
2018-07-14T19:40:56.232Z,3.00
2018-07-14T19:43:24.889Z,2.72
2018-07-14T19:45:53.804Z,3.15
2018-07-14T19:48:23.188Z,3.40
2018-07-14T19:50:52.460Z,3.00
2018-07-14T19:53:21.492Z,3.55
2018-07-14T19:55:50.163Z,3.08
2018-07-14T19:58:18.944Z,3.02
2018-07-14T20:00:47.944Z,3.00
2018-07-14T20:03:17.080Z,2.95
2018-07-14T20:05:46.528Z,3.17
2018-07-14T20:08:15.335Z,3.25
2018-07-14T20:10:44.368Z,3.80
2018-07-14T20:13:13.097Z,3.00
2018-07-14T20:15:42.076Z,3.22
2018-07-14T20:18:10.816Z,3.58
2018-07-14T20:20:39.948Z,3.22
2018-07-14T20:23:08.850Z,3.22
2018-07-14T20:25:37.956Z,3.12
2018-07-14T20:28:07.144Z,3.70
2018-07-14T20:30:36.247Z,2.83
2018-07-14T20:33:05.043Z,3.77
2018-07-14T20:35:34.366Z,3.30
2018-07-14T20:38:03.088Z,3.47
2018-07-14T20:40:32.537Z,3.42
2018-07-14T20:43:01.712Z,3.40
2018-07-14T20:45:30.548Z,3.45
2018-07-14T20:47:59.279Z,3.05
2018-07-14T20:50:27.968Z,3.45
2018-07-14T20:52:57.768Z,3.47
2018-07-14T20:55:26.551Z,3.20
2018-07-14T20:57:56.160Z,3.55
2018-07-14T21:00:25.248Z,3.85
2018-07-14T21:02:54.236Z,3.70
2018-07-14T21:05:23.948Z,3.45
2018-07-14T21:07:53.340Z,3.27
2018-07-14T21:10:22.639Z,3.40
2018-07-14T21:12:51.236Z,3.10
2018-07-14T21:15:19.643Z,3.60
2018-07-14T21:17:48.573Z,3.27
2018-07-14T21:20:17.648Z,3.47
2018-07-14T21:22:47.098Z,3.55
2018-07-14T21:25:15.723Z,3.77
2018-07-14T21:27:44.352Z,3.65
2018-07-14T21:30:13.512Z,3.55
2018-07-14T21:32:42.308Z,3.33
2018-07-14T21:35:11.549Z,3.75
2018-07-14T21:37:40.552Z,3.50
2018-07-14T21:40:09.545Z,3.60
2018-07-14T21:42:39.557Z,3.72
2018-07-14T21:45:08.545Z,3.80
2018-07-14T21:47:37.540Z,3.70
2018-07-14T21:50:06.927Z,3.83
2018-07-14T21:52:35.542Z,3.87
2018-07-14T21:55:04.664Z,3.70
2018-07-14T21:57:33.888Z,3.90
2018-07-14T22:00:03.329Z,3.62
2018-07-14T22:02:32.264Z,3.67
2018-07-14T22:05:01.519Z,3.85
2018-07-14T22:07:30.794Z,4.42
2018-07-14T22:10:02.720Z,3.83
2018-07-14T22:12:31.996Z,4.28
2018-07-14T22:15:01.014Z,4.03
2018-07-14T22:17:29.728Z,3.60
2018-07-14T22:19:58.951Z,4.10
2018-07-14T22:22:28.396Z,3.60
2018-07-14T22:24:57.299Z,3.65
2018-07-14T22:27:25.699Z,3.55
2018-07-14T22:29:54.715Z,3.70
2018-07-14T22:32:24.048Z,3.52
2018-07-14T22:34:53.893Z,3.90
2018-07-14T22:37:23.267Z,3.52
2018-07-14T22:39:52.668Z,3.60
2018-07-14T22:42:22.524Z,3.50
2018-07-14T22:44:51.148Z,3.70
2018-07-14T22:47:20.363Z,3.40
2018-07-14T22:49:49.142Z,3.35
2018-07-14T22:52:18.780Z,3.80
2018-07-14T22:54:47.548Z,3.70
2018-07-14T22:57:16.455Z,3.40
2018-07-14T22:59:45.370Z,3.50
2018-07-14T23:02:14.503Z,3.92
2018-07-14T23:04:43.737Z,3.62
2018-07-14T23:07:13.011Z,3.67
2018-07-14T23:09:42.030Z,4.00
2018-07-14T23:12:10.903Z,3.40
2018-07-14T23:14:39.465Z,3.30
2018-07-14T23:17:08.895Z,3.47
2018-07-14T23:19:37.528Z,4.30
2018-07-14T23:22:06.476Z,4.10
2018-07-14T23:24:35.744Z,4.00
2018-07-14T23:27:04.916Z,4.30
2018-07-14T23:29:34.479Z,3.93
2018-07-14T23:32:03.349Z,3.85
2018-07-14T23:34:32.564Z,4.00
2018-07-14T23:37:01.552Z,3.70
2018-07-14T23:39:31.096Z,3.73
2018-07-14T23:42:00.355Z,3.50
2018-07-14T23:44:29.273Z,3.60
2018-07-14T23:46:58.712Z,3.60
2018-07-14T23:49:27.424Z,3.77
2018-07-14T23:51:56.508Z,3.70
2018-07-14T23:54:25.731Z,3.70
2018-07-14T23:56:55.408Z,3.77
2018-07-14T23:59:24.463Z,3.70
